Nearby METAR Reports

 

KBVO - Bartlesville, Oklahoma, USA
Distance from station: WNW 10mi, 16km
Updated: Sun, 21-Oct-2018 7:53am CDT
Clear
Clear
 Wind from calm
Wind: Calm
Temperature: 34°F , 1°C
Dew Point: 30°F , -1°C
Humidity: 87%
Barometer: 30.40 inHg , 1029.5 hPa
Clouds: Clear
Visibility: 10 miles , 16 km
2018/10/21 12:53 KBVO 211253Z AUTO 00000KT 10SM CLR 01/M01 A3040 RMK AO2 SLP295 T00061006
KCFV - Coffeyville, Kansas, USA
Distance from station: NNE 31mi, 49km
Updated: Sun, 21-Oct-2018 7:52am CDT
Clear
Clear
 Wind from calm
Wind: Calm
Temperature: 36°F , 2°C
Dew Point: 34°F , 1°C
Humidity: 93%
Barometer: 30.39 inHg , 1029.1 hPa
Clouds: Clear
Visibility: 10 miles , 16 km
2018/10/21 12:52 KCFV 211252Z AUTO 00000KT 10SM CLR 02/01 A3039 RMK AO2 SLP295 T00170006
 
KIDP - Independence, Kansas, USA
Distance from station: N 32mi, 52km
Updated: Sun, 21-Oct-2018 8:35am CDT
Clear
Clear
 Wind from NE
Wind: NE 3 mph , 6 km/h
Temperature: 37°F , 3°C
Dew Point: 34°F , 1°C
Humidity: 87%
Barometer: 30.40 inHg , 1029.5 hPa
Clouds: Clear
Visibility: 10 miles , 16 km
2018/10/21 13:35 KIDP 211335Z AUTO 04003KT 10SM CLR 03/01 A3040 RMK AO2 T00290013
KGCM - Claremore, Oklahoma, USA
Distance from station: SE 35mi, 56km
Updated: Sun, 21-Oct-2018 8:35am CDT
Clear
Clear
 Wind from E
Wind: E 5 mph , 7 km/h
Temperature: 41°F , 5°C
Wind Chill: 38°F , 3°C
Dew Point: 36°F , 2°C
Humidity: 81%
Barometer: 30.40 inHg , 1029.5 hPa
Clouds: Clear
Visibility: 10 miles , 16 km
2018/10/21 13:35 KGCM 211335Z AUTO 08004KT 10SM CLR 05/02 A3040 RMK AO2 TSNO
 
KTUL - Tulsa, Oklahoma, USA
Distance from station: S 35mi, 56km
Updated: Sun, 21-Oct-2018 7:53am CDT
Clear
Clear
 Wind from W
Wind: W 3 mph , 6 km/h
Temperature: 37°F , 3°C
Dew Point: 34°F , 1°C
Humidity: 87%
Barometer: 30.38 inHg , 1028.8 hPa
Clouds: Clear
Visibility: 10 miles , 16 km
2018/10/21 12:53 KTUL 211253Z 28003KT 10SM CLR 03/01 A3038 RMK AO2 SLP287 T00280011
KRVS - Tulsa, Oklahoma, USA
Distance from station: S 46mi, 74km
Updated: Sun, 21-Oct-2018 7:53am CDT
Clear
Clear
 Wind from calm
Wind: Calm
Temperature: 39°F , 4°C
Dew Point: 37°F , 3°C
Humidity: 93%
Barometer: 30.39 inHg , 1029.1 hPa
Clouds: Clear
Visibility: 10 miles , 16 km
2018/10/21 12:53 KRVS 211253Z 00000KT 10SM CLR 04/03 A3039 RMK AO2 SLP296 T00440028
 
KPPF - Parsons, Kansas, USA
Distance from station: NNE 48mi, 76km
Updated: Sun, 21-Oct-2018 7:52am CDT
Clear
Clear
 Wind from calm
Wind: Calm
Temperature: 34°F , 1°C
Dew Point: 32°F , 0°C
Humidity: 93%
Barometer: 30.40 inHg , 1029.5 hPa
Clouds: Clear
Visibility: 10 miles , 16 km
2018/10/21 12:52 KPPF 211252Z AUTO 00000KT 10SM CLR 01/00 A3040 RMK AO2 SLP295 T00060000
KGMJ - Grove, Oklahoma, USA
Distance from station: E 63mi, 101km
Updated: Sun, 21-Oct-2018 8:35am CDT
Clear
Clear
 Wind from calm
Wind: Calm
Temperature: 37°F , 3°C
Dew Point: 36°F , 2°C
Humidity: 93%
Barometer: 30.40 inHg , 1029.5 hPa
Clouds: Clear
Visibility: 10 miles , 16 km
2018/10/21 13:35 KGMJ 211335Z AUTO 00000KT 10SM CLR 03/02 A3040 RMK AO2
 
KPNC - Ponca City, Oklahoma, USA
Distance from station: W 69mi, 111km
Updated: Sun, 21-Oct-2018 7:53am CDT
Clear
Clear
 Wind from calm
Wind: Calm
Temperature: 37°F , 3°C
Dew Point: 34°F , 1°C
Humidity: 87%
Barometer: 30.37 inHg , 1028.4 hPa
Clouds: Clear
Visibility: 10 miles , 16 km
2018/10/21 12:53 KPNC 211253Z AUTO 00000KT 10SM CLR 03/01 A3037 RMK AO2 SLP285 T00330006
KCNU - Chanute, Kansas, USA
Distance from station: NNE 69mi, 112km
Updated: Sun, 21-Oct-2018 7:52am CDT
Clear
Clear
 Wind from S
Wind: S 3 mph , 6 km/h
Temperature: 34°F , 1°C
Dew Point: 30°F , -1°C
Humidity: 87%
Barometer: 30.39 inHg , 1029.1 hPa
Clouds: Clear
Visibility: 10 miles , 16 km
2018/10/21 12:52 KCNU 211252Z AUTO 17003KT 10SM CLR 01/M01 A3039 RMK AO2 SLP293 T00061006 $